sensor_id;sensor_type;location;lat;lon;timestamp;P1;durP1;ratioP1;P2;durP2;ratioP2
9848;SDS011;4963;51.444;6.528;2024-03-02T00:01:24;2.17;;;1.80;;
9848;SDS011;4963;51.444;6.528;2024-03-02T00:03:51;2.27;;;1.60;;
9848;SDS011;4963;51.444;6.528;2024-03-02T00:06:19;2.63;;;1.80;;
9848;SDS011;4963;51.444;6.528;2024-03-02T00:08:48;2.10;;;1.57;;
9848;SDS011;4963;51.444;6.528;2024-03-02T00:11:16;2.07;;;1.77;;
9848;SDS011;4963;51.444;6.528;2024-03-02T00:13:44;2.90;;;1.43;;
9848;SDS011;4963;51.444;6.528;2024-03-02T00:16:12;5.23;;;1.97;;
9848;SDS011;4963;51.444;6.528;2024-03-02T00:18:39;3.90;;;1.57;;
9848;SDS011;4963;51.444;6.528;2024-03-02T00:21:06;2.27;;;1.37;;
9848;SDS011;4963;51.444;6.528;2024-03-02T00:23:35;4.70;;;1.90;;
9848;SDS011;4963;51.444;6.528;2024-03-02T00:26:03;2.30;;;1.60;;
9848;SDS011;4963;51.444;6.528;2024-03-02T00:28:32;2.73;;;1.67;;
9848;SDS011;4963;51.444;6.528;2024-03-02T00:31:02;2.73;;;2.00;;
9848;SDS011;4963;51.444;6.528;2024-03-02T00:33:30;2.80;;;1.70;;
9848;SDS011;4963;51.444;6.528;2024-03-02T00:35:59;3.17;;;1.90;;
9848;SDS011;4963;51.444;6.528;2024-03-02T00:38:27;3.00;;;1.80;;
9848;SDS011;4963;51.444;6.528;2024-03-02T00:40:54;1.57;;;1.30;;
9848;SDS011;4963;51.444;6.528;2024-03-02T00:46:10;3.40;;;1.57;;
9848;SDS011;4963;51.444;6.528;2024-03-02T00:48:38;3.07;;;1.47;;
9848;SDS011;4963;51.444;6.528;2024-03-02T00:51:10;3.53;;;1.50;;
9848;SDS011;4963;51.444;6.528;2024-03-02T00:53:37;4.80;;;1.60;;
9848;SDS011;4963;51.444;6.528;2024-03-02T00:56:04;2.40;;;1.50;;
9848;SDS011;4963;51.444;6.528;2024-03-02T00:58:37;4.33;;;1.90;;
9848;SDS011;4963;51.444;6.528;2024-03-02T01:01:05;3.17;;;1.77;;
9848;SDS011;4963;51.444;6.528;2024-03-02T01:03:32;2.70;;;1.60;;
9848;SDS011;4963;51.444;6.528;2024-03-02T01:05:59;2.63;;;1.60;;
9848;SDS011;4963;51.444;6.528;2024-03-02T01:08:26;3.07;;;1.40;;
9848;SDS011;4963;51.444;6.528;2024-03-02T01:10:54;3.50;;;1.37;;
9848;SDS011;4963;51.444;6.528;2024-03-02T01:13:21;1.60;;;1.20;;
9848;SDS011;4963;51.444;6.528;2024-03-02T01:15:49;2.57;;;1.43;;
9848;SDS011;4963;51.444;6.528;2024-03-02T01:18:17;2.87;;;1.33;;
9848;SDS011;4963;51.444;6.528;2024-03-02T01:20:44;3.60;;;1.50;;
9848;SDS011;4963;51.444;6.528;2024-03-02T01:23:11;2.00;;;1.50;;
9848;SDS011;4963;51.444;6.528;2024-03-02T01:25:39;3.90;;;1.47;;
9848;SDS011;4963;51.444;6.528;2024-03-02T01:28:06;3.00;;;1.50;;
9848;SDS011;4963;51.444;6.528;2024-03-02T01:30:33;3.93;;;1.73;;
9848;SDS011;4963;51.444;6.528;2024-03-02T01:33:00;2.83;;;1.40;;
9848;SDS011;4963;51.444;6.528;2024-03-02T01:35:28;2.73;;;1.60;;
9848;SDS011;4963;51.444;6.528;2024-03-02T01:37:55;3.00;;;1.50;;
9848;SDS011;4963;51.444;6.528;2024-03-02T01:40:22;1.93;;;1.27;;
9848;SDS011;4963;51.444;6.528;2024-03-02T01:42:51;2.87;;;1.50;;
9848;SDS011;4963;51.444;6.528;2024-03-02T01:45:18;2.57;;;1.50;;
9848;SDS011;4963;51.444;6.528;2024-03-02T01:47:45;2.90;;;1.40;;
9848;SDS011;4963;51.444;6.528;2024-03-02T01:50:12;2.57;;;1.40;;
9848;SDS011;4963;51.444;6.528;2024-03-02T01:52:41;3.23;;;2.07;;
9848;SDS011;4963;51.444;6.528;2024-03-02T01:55:09;2.47;;;1.77;;
9848;SDS011;4963;51.444;6.528;2024-03-02T01:57:36;2.30;;;1.43;;
9848;SDS011;4963;51.444;6.528;2024-03-02T02:00:03;2.50;;;1.87;;
9848;SDS011;4963;51.444;6.528;2024-03-02T02:02:34;3.63;;;1.50;;
9848;SDS011;4963;51.444;6.528;2024-03-02T02:05:01;4.50;;;1.77;;
9848;SDS011;4963;51.444;6.528;2024-03-02T02:07:29;3.07;;;1.73;;
9848;SDS011;4963;51.444;6.528;2024-03-02T02:09:57;3.13;;;1.53;;
9848;SDS011;4963;51.444;6.528;2024-03-02T02:12:24;2.80;;;1.63;;
9848;SDS011;4963;51.444;6.528;2024-03-02T02:14:52;2.60;;;1.50;;
9848;SDS011;4963;51.444;6.528;2024-03-02T02:17:19;3.80;;;1.80;;
9848;SDS011;4963;51.444;6.528;2024-03-02T02:19:46;2.50;;;1.50;;
9848;SDS011;4963;51.444;6.528;2024-03-02T02:22:15;5.70;;;1.67;;
9848;SDS011;4963;51.444;6.528;2024-03-02T02:24:42;2.43;;;1.60;;
9848;SDS011;4963;51.444;6.528;2024-03-02T02:27:09;2.53;;;1.60;;
9848;SDS011;4963;51.444;6.528;2024-03-02T02:29:37;2.57;;;1.77;;
9848;SDS011;4963;51.444;6.528;2024-03-02T02:32:05;3.90;;;1.70;;
9848;SDS011;4963;51.444;6.528;2024-03-02T02:34:32;2.90;;;1.53;;
9848;SDS011;4963;51.444;6.528;2024-03-02T02:36:59;5.43;;;1.87;;
9848;SDS011;4963;51.444;6.528;2024-03-02T02:39:27;2.50;;;1.80;;
9848;SDS011;4963;51.444;6.528;2024-03-02T02:41:54;2.63;;;1.80;;
9848;SDS011;4963;51.444;6.528;2024-03-02T02:44:21;2.10;;;1.43;;
9848;SDS011;4963;51.444;6.528;2024-03-02T02:46:48;2.50;;;1.80;;
9848;SDS011;4963;51.444;6.528;2024-03-02T02:49:15;3.60;;;2.00;;
9848;SDS011;4963;51.444;6.528;2024-03-02T02:51:42;2.40;;;1.57;;
9848;SDS011;4963;51.444;6.528;2024-03-02T02:54:09;3.03;;;1.97;;
9848;SDS011;4963;51.444;6.528;2024-03-02T02:56:37;2.67;;;1.80;;
9848;SDS011;4963;51.444;6.528;2024-03-02T02:59:04;2.90;;;1.80;;
9848;SDS011;4963;51.444;6.528;2024-03-02T03:01:30;2.97;;;1.70;;
9848;SDS011;4963;51.444;6.528;2024-03-02T03:03:57;2.17;;;1.47;;
9848;SDS011;4963;51.444;6.528;2024-03-02T03:06:24;3.50;;;1.90;;
9848;SDS011;4963;51.444;6.528;2024-03-02T03:08:51;5.00;;;1.80;;
9848;SDS011;4963;51.444;6.528;2024-03-02T03:11:18;3.20;;;1.70;;
9848;SDS011;4963;51.444;6.528;2024-03-02T03:13:46;2.77;;;1.50;;
9848;SDS011;4963;51.444;6.528;2024-03-02T03:16:13;4.00;;;1.70;;
9848;SDS011;4963;51.444;6.528;2024-03-02T03:18:40;2.80;;;1.33;;
9848;SDS011;4963;51.444;6.528;2024-03-02T03:21:08;3.57;;;1.50;;
9848;SDS011;4963;51.444;6.528;2024-03-02T03:23:35;5.23;;;1.37;;
9848;SDS011;4963;51.444;6.528;2024-03-02T03:26:01;1.77;;;1.10;;
9848;SDS011;4963;51.444;6.528;2024-03-02T03:28:29;1.73;;;0.97;;
9848;SDS011;4963;51.444;6.528;2024-03-02T03:30:57;1.63;;;1.00;;
9848;SDS011;4963;51.444;6.528;2024-03-02T03:33:24;3.93;;;1.10;;
9848;SDS011;4963;51.444;6.528;2024-03-02T03:35:51;1.00;;;0.90;;
9848;SDS011;4963;51.444;6.528;2024-03-02T03:38:18;0.80;;;0.80;;
9848;SDS011;4963;51.444;6.528;2024-03-02T03:40:45;1.30;;;0.80;;
9848;SDS011;4963;51.444;6.528;2024-03-02T03:43:12;1.17;;;0.87;;
9848;SDS011;4963;51.444;6.528;2024-03-02T03:45:41;2.33;;;0.70;;
9848;SDS011;4963;51.444;6.528;2024-03-02T03:48:10;0.77;;;0.77;;
9848;SDS011;4963;51.444;6.528;2024-03-02T03:50:36;1.50;;;0.73;;
9848;SDS011;4963;51.444;6.528;2024-03-02T03:53:04;1.07;;;0.67;;
9848;SDS011;4963;51.444;6.528;2024-03-02T03:55:30;0.70;;;0.60;;
9848;SDS011;4963;51.444;6.528;2024-03-02T03:57:57;1.07;;;0.63;;
9848;SDS011;4963;51.444;6.528;2024-03-02T04:00:24;0.73;;;0.70;;
9848;SDS011;4963;51.444;6.528;2024-03-02T04:02:51;0.97;;;0.83;;
9848;SDS011;4963;51.444;6.528;2024-03-02T04:05:19;1.10;;;0.73;;
9848;SDS011;4963;51.444;6.528;2024-03-02T04:07:46;0.83;;;0.70;;
9848;SDS011;4963;51.444;6.528;2024-03-02T04:10:13;1.83;;;0.60;;
9848;SDS011;4963;51.444;6.528;2024-03-02T04:12:41;0.70;;;0.60;;
9848;SDS011;4963;51.444;6.528;2024-03-02T04:15:08;1.07;;;0.80;;
9848;SDS011;4963;51.444;6.528;2024-03-02T04:17:35;1.27;;;0.80;;
9848;SDS011;4963;51.444;6.528;2024-03-02T04:20:02;1.40;;;1.20;;
9848;SDS011;4963;51.444;6.528;2024-03-02T04:22:33;1.73;;;0.80;;
9848;SDS011;4963;51.444;6.528;2024-03-02T04:25:01;1.23;;;0.70;;
9848;SDS011;4963;51.444;6.528;2024-03-02T04:27:29;0.50;;;0.50;;
9848;SDS011;4963;51.444;6.528;2024-03-02T04:29:56;1.47;;;0.83;;
9848;SDS011;4963;51.444;6.528;2024-03-02T04:32:25;1.00;;;0.60;;
9848;SDS011;4963;51.444;6.528;2024-03-02T04:34:52;0.73;;;0.73;;
9848;SDS011;4963;51.444;6.528;2024-03-02T04:37:18;1.93;;;0.80;;
9848;SDS011;4963;51.444;6.528;2024-03-02T04:39:48;1.37;;;0.90;;
9848;SDS011;4963;51.444;6.528;2024-03-02T04:42:15;1.13;;;0.80;;
9848;SDS011;4963;51.444;6.528;2024-03-02T04:44:42;0.80;;;0.80;;
9848;SDS011;4963;51.444;6.528;2024-03-02T04:47:09;1.43;;;0.80;;
9848;SDS011;4963;51.444;6.528;2024-03-02T04:49:35;1.63;;;0.90;;
9848;SDS011;4963;51.444;6.528;2024-03-02T04:52:02;2.87;;;1.13;;
9848;SDS011;4963;51.444;6.528;2024-03-02T04:54:30;0.77;;;0.70;;
9848;SDS011;4963;51.444;6.528;2024-03-02T04:56:59;0.67;;;0.67;;
9848;SDS011;4963;51.444;6.528;2024-03-02T04:59:26;1.27;;;0.90;;
9848;SDS011;4963;51.444;6.528;2024-03-02T05:01:53;0.70;;;0.60;;
9848;SDS011;4963;51.444;6.528;2024-03-02T05:04:21;2.00;;;1.00;;
9848;SDS011;4963;51.444;6.528;2024-03-02T05:06:48;0.83;;;0.70;;
9848;SDS011;4963;51.444;6.528;2024-03-02T05:09:17;1.50;;;1.00;;
9848;SDS011;4963;51.444;6.528;2024-03-02T05:11:44;0.70;;;0.70;;
9848;SDS011;4963;51.444;6.528;2024-03-02T05:14:38;0.97;;;0.83;;
9848;SDS011;4963;51.444;6.528;2024-03-02T05:17:05;1.80;;;0.80;;
9848;SDS011;4963;51.444;6.528;2024-03-02T05:19:32;1.17;;;0.87;;
9848;SDS011;4963;51.444;6.528;2024-03-02T05:21:58;2.37;;;0.90;;
9848;SDS011;4963;51.444;6.528;2024-03-02T05:24:25;0.93;;;0.77;;
9848;SDS011;4963;51.444;6.528;2024-03-02T05:26:53;2.30;;;1.07;;
9848;SDS011;4963;51.444;6.528;2024-03-02T05:29:20;1.07;;;0.90;;
9848;SDS011;4963;51.444;6.528;2024-03-02T05:31:48;0.90;;;0.80;;
9848;SDS011;4963;51.444;6.528;2024-03-02T05:34:15;1.20;;;0.90;;
9848;SDS011;4963;51.444;6.528;2024-03-02T05:36:43;2.17;;;0.97;;
9848;SDS011;4963;51.444;6.528;2024-03-02T05:39:10;1.53;;;1.10;;
9848;SDS011;4963;51.444;6.528;2024-03-02T05:41:37;2.70;;;1.10;;
9848;SDS011;4963;51.444;6.528;2024-03-02T05:44:04;3.20;;;2.20;;
9848;SDS011;4963;51.444;6.528;2024-03-02T05:46:31;5.03;;;2.17;;
9848;SDS011;4963;51.444;6.528;2024-03-02T05:48:59;3.73;;;2.20;;
9848;SDS011;4963;51.444;6.528;2024-03-02T05:51:27;2.33;;;1.80;;
9848;SDS011;4963;51.444;6.528;2024-03-02T05:53:53;2.00;;;1.43;;
9848;SDS011;4963;51.444;6.528;2024-03-02T05:56:20;2.20;;;1.63;;
9848;SDS011;4963;51.444;6.528;2024-03-02T05:58:47;3.40;;;1.70;;
9848;SDS011;4963;51.444;6.528;2024-03-02T06:01:25;2.13;;;1.50;;
9848;SDS011;4963;51.444;6.528;2024-03-02T06:03:54;2.27;;;1.63;;
9848;SDS011;4963;51.444;6.528;2024-03-02T06:06:27;3.07;;;1.57;;
9848;SDS011;4963;51.444;6.528;2024-03-02T06:08:54;2.03;;;1.20;;
9848;SDS011;4963;51.444;6.528;2024-03-02T06:11:21;2.67;;;1.57;;
9848;SDS011;4963;51.444;6.528;2024-03-02T06:13:48;3.17;;;1.40;;
9848;SDS011;4963;51.444;6.528;2024-03-02T06:16:15;1.97;;;1.30;;
9848;SDS011;4963;51.444;6.528;2024-03-02T06:18:42;1.83;;;1.43;;
9848;SDS011;4963;51.444;6.528;2024-03-02T06:21:09;3.30;;;1.60;;
9848;SDS011;4963;51.444;6.528;2024-03-02T06:23:37;3.97;;;1.60;;
9848;SDS011;4963;51.444;6.528;2024-03-02T06:26:04;3.63;;;1.60;;
9848;SDS011;4963;51.444;6.528;2024-03-02T06:28:32;4.23;;;2.03;;
9848;SDS011;4963;51.444;6.528;2024-03-02T06:30:59;2.83;;;1.70;;
9848;SDS011;4963;51.444;6.528;2024-03-02T06:33:26;5.37;;;1.90;;
9848;SDS011;4963;51.444;6.528;2024-03-02T06:35:53;3.87;;;1.63;;
9848;SDS011;4963;51.444;6.528;2024-03-02T06:38:20;1.93;;;1.40;;
9848;SDS011;4963;51.444;6.528;2024-03-02T06:40:48;4.03;;;1.80;;
9848;SDS011;4963;51.444;6.528;2024-03-02T06:43:15;3.00;;;1.53;;
9848;SDS011;4963;51.444;6.528;2024-03-02T06:45:42;3.23;;;1.70;;
9848;SDS011;4963;51.444;6.528;2024-03-02T06:48:11;2.57;;;1.70;;
9848;SDS011;4963;51.444;6.528;2024-03-02T06:50:41;2.73;;;1.70;;
9848;SDS011;4963;51.444;6.528;2024-03-02T06:53:07;2.70;;;1.97;;
9848;SDS011;4963;51.444;6.528;2024-03-02T06:55:36;2.73;;;1.77;;
9848;SDS011;4963;51.444;6.528;2024-03-02T06:58:04;3.07;;;1.90;;
9848;SDS011;4963;51.444;6.528;2024-03-02T07:00:31;4.10;;;1.70;;
9848;SDS011;4963;51.444;6.528;2024-03-02T07:02:58;4.27;;;1.97;;
9848;SDS011;4963;51.444;6.528;2024-03-02T07:05:25;2.40;;;1.90;;
9848;SDS011;4963;51.444;6.528;2024-03-02T07:07:52;2.97;;;2.03;;
9848;SDS011;4963;51.444;6.528;2024-03-02T07:10:19;2.97;;;1.87;;
9848;SDS011;4963;51.444;6.528;2024-03-02T07:12:45;3.17;;;2.00;;
9848;SDS011;4963;51.444;6.528;2024-03-02T07:15:14;5.90;;;2.37;;
9848;SDS011;4963;51.444;6.528;2024-03-02T07:17:58;5.10;;;2.73;;
9848;SDS011;4963;51.444;6.528;2024-03-02T07:20:26;3.07;;;1.73;;
9848;SDS011;4963;51.444;6.528;2024-03-02T07:22:53;5.23;;;2.10;;
9848;SDS011;4963;51.444;6.528;2024-03-02T07:25:20;3.87;;;2.10;;
9848;SDS011;4963;51.444;6.528;2024-03-02T07:27:47;3.50;;;2.20;;
9848;SDS011;4963;51.444;6.528;2024-03-02T07:30:15;4.20;;;2.40;;
9848;SDS011;4963;51.444;6.528;2024-03-02T07:32:42;2.87;;;2.30;;
9848;SDS011;4963;51.444;6.528;2024-03-02T07:35:11;3.27;;;2.00;;
9848;SDS011;4963;51.444;6.528;2024-03-02T07:37:39;4.77;;;2.10;;
9848;SDS011;4963;51.444;6.528;2024-03-02T07:40:08;5.93;;;1.97;;
9848;SDS011;4963;51.444;6.528;2024-03-02T07:42:37;2.83;;;2.03;;
9848;SDS011;4963;51.444;6.528;2024-03-02T07:45:06;3.93;;;2.10;;
9848;SDS011;4963;51.444;6.528;2024-03-02T07:47:36;3.43;;;2.07;;
9848;SDS011;4963;51.444;6.528;2024-03-02T07:50:04;4.77;;;2.17;;
9848;SDS011;4963;51.444;6.528;2024-03-02T07:52:32;4.40;;;1.93;;
9848;SDS011;4963;51.444;6.528;2024-03-02T07:54:59;4.73;;;1.83;;
9848;SDS011;4963;51.444;6.528;2024-03-02T07:57:26;4.30;;;2.43;;
9848;SDS011;4963;51.444;6.528;2024-03-02T07:59:54;3.30;;;2.07;;
9848;SDS011;4963;51.444;6.528;2024-03-02T08:02:21;3.53;;;2.07;;
9848;SDS011;4963;51.444;6.528;2024-03-02T08:04:50;3.20;;;1.70;;
9848;SDS011;4963;51.444;6.528;2024-03-02T08:07:16;3.00;;;1.77;;
9848;SDS011;4963;51.444;6.528;2024-03-02T08:09:46;3.57;;;1.80;;
9848;SDS011;4963;51.444;6.528;2024-03-02T08:12:13;4.70;;;2.67;;
9848;SDS011;4963;51.444;6.528;2024-03-02T08:14:40;3.60;;;2.27;;
9848;SDS011;4963;51.444;6.528;2024-03-02T08:17:06;4.53;;;2.13;;
9848;SDS011;4963;51.444;6.528;2024-03-02T08:19:34;4.67;;;2.03;;
9848;SDS011;4963;51.444;6.528;2024-03-02T08:22:03;2.83;;;2.17;;
9848;SDS011;4963;51.444;6.528;2024-03-02T08:24:31;3.13;;;2.17;;
9848;SDS011;4963;51.444;6.528;2024-03-02T08:26:59;2.67;;;2.03;;
9848;SDS011;4963;51.444;6.528;2024-03-02T08:29:26;2.83;;;2.10;;
9848;SDS011;4963;51.444;6.528;2024-03-02T08:31:53;2.80;;;2.10;;
9848;SDS011;4963;51.444;6.528;2024-03-02T08:34:20;3.30;;;2.10;;
9848;SDS011;4963;51.444;6.528;2024-03-02T08:36:47;5.47;;;2.10;;
9848;SDS011;4963;51.444;6.528;2024-03-02T08:39:15;2.63;;;1.80;;
9848;SDS011;4963;51.444;6.528;2024-03-02T08:41:45;4.53;;;2.20;;
9848;SDS011;4963;51.444;6.528;2024-03-02T08:44:12;2.43;;;1.90;;
9848;SDS011;4963;51.444;6.528;2024-03-02T08:46:39;5.43;;;1.90;;
9848;SDS011;4963;51.444;6.528;2024-03-02T08:49:06;3.93;;;1.90;;
9848;SDS011;4963;51.444;6.528;2024-03-02T08:51:33;3.37;;;1.93;;
9848;SDS011;4963;51.444;6.528;2024-03-02T08:54:00;3.00;;;1.90;;
9848;SDS011;4963;51.444;6.528;2024-03-02T08:56:30;2.20;;;1.60;;
9848;SDS011;4963;51.444;6.528;2024-03-02T08:58:57;4.13;;;2.07;;
9848;SDS011;4963;51.444;6.528;2024-03-02T09:01:24;3.27;;;1.30;;
9848;SDS011;4963;51.444;6.528;2024-03-02T09:03:51;3.73;;;1.70;;
9848;SDS011;4963;51.444;6.528;2024-03-02T09:06:18;4.70;;;1.30;;
9848;SDS011;4963;51.444;6.528;2024-03-02T09:08:46;2.47;;;1.60;;
9848;SDS011;4963;51.444;6.528;2024-03-02T09:11:15;2.00;;;1.57;;
9848;SDS011;4963;51.444;6.528;2024-03-02T09:13:43;3.33;;;1.50;;
9848;SDS011;4963;51.444;6.528;2024-03-02T09:16:10;3.07;;;1.30;;
9848;SDS011;4963;51.444;6.528;2024-03-02T09:18:37;3.77;;;1.60;;
9848;SDS011;4963;51.444;6.528;2024-03-02T09:21:04;4.47;;;1.63;;
9848;SDS011;4963;51.444;6.528;2024-03-02T09:23:31;2.23;;;1.23;;
9848;SDS011;4963;51.444;6.528;2024-03-02T09:25:58;2.87;;;1.80;;
9848;SDS011;4963;51.444;6.528;2024-03-02T09:28:25;5.97;;;1.70;;
9848;SDS011;4963;51.444;6.528;2024-03-02T09:30:54;5.10;;;1.47;;
9848;SDS011;4963;51.444;6.528;2024-03-02T09:33:22;6.60;;;1.60;;
9848;SDS011;4963;51.444;6.528;2024-03-02T09:35:50;5.60;;;1.50;;
9848;SDS011;4963;51.444;6.528;2024-03-02T09:38:17;3.47;;;1.63;;
9848;SDS011;4963;51.444;6.528;2024-03-02T09:40:44;1.80;;;1.30;;
9848;SDS011;4963;51.444;6.528;2024-03-02T09:43:11;1.97;;;1.30;;
9848;SDS011;4963;51.444;6.528;2024-03-02T09:45:38;2.30;;;1.37;;
9848;SDS011;4963;51.444;6.528;2024-03-02T09:48:07;2.77;;;1.60;;
9848;SDS011;4963;51.444;6.528;2024-03-02T09:50:34;3.63;;;1.37;;
9848;SDS011;4963;51.444;6.528;2024-03-02T09:53:01;3.77;;;1.40;;
9848;SDS011;4963;51.444;6.528;2024-03-02T09:55:28;2.23;;;1.50;;
9848;SDS011;4963;51.444;6.528;2024-03-02T09:57:55;1.90;;;1.30;;
9848;SDS011;4963;51.444;6.528;2024-03-02T10:00:21;4.67;;;1.20;;
9848;SDS011;4963;51.444;6.528;2024-03-02T10:02:51;4.03;;;1.73;;
9848;SDS011;4963;51.444;6.528;2024-03-02T10:05:25;4.60;;;1.47;;
9848;SDS011;4963;51.444;6.528;2024-03-02T10:07:59;5.17;;;1.30;;
9848;SDS011;4963;51.444;6.528;2024-03-02T10:10:33;4.80;;;1.40;;
9848;SDS011;4963;51.444;6.528;2024-03-02T10:13:05;2.83;;;1.40;;
9848;SDS011;4963;51.444;6.528;2024-03-02T10:15:33;3.37;;;1.27;;
9848;SDS011;4963;51.444;6.528;2024-03-02T10:18:02;3.40;;;1.43;;
9848;SDS011;4963;51.444;6.528;2024-03-02T10:20:30;2.00;;;1.30;;
9848;SDS011;4963;51.444;6.528;2024-03-02T10:23:09;3.40;;;1.40;;
9848;SDS011;4963;51.444;6.528;2024-03-02T10:25:37;3.13;;;1.53;;
9848;SDS011;4963;51.444;6.528;2024-03-02T10:28:05;4.17;;;1.40;;
9848;SDS011;4963;51.444;6.528;2024-03-02T10:30:32;2.83;;;1.20;;
9848;SDS011;4963;51.444;6.528;2024-03-02T10:33:00;2.50;;;1.20;;
9848;SDS011;4963;51.444;6.528;2024-03-02T10:35:29;2.67;;;1.30;;
9848;SDS011;4963;51.444;6.528;2024-03-02T10:37:58;2.50;;;1.27;;
9848;SDS011;4963;51.444;6.528;2024-03-02T10:40:26;2.30;;;1.30;;
9848;SDS011;4963;51.444;6.528;2024-03-02T10:42:53;2.10;;;1.30;;
9848;SDS011;4963;51.444;6.528;2024-03-02T10:45:20;4.97;;;1.23;;
9848;SDS011;4963;51.444;6.528;2024-03-02T10:47:48;3.37;;;1.50;;
9848;SDS011;4963;51.444;6.528;2024-03-02T10:50:16;1.33;;;1.20;;
9848;SDS011;4963;51.444;6.528;2024-03-02T10:52:45;3.50;;;1.10;;
9848;SDS011;4963;51.444;6.528;2024-03-02T10:55:12;3.40;;;1.40;;
9848;SDS011;4963;51.444;6.528;2024-03-02T10:57:41;4.20;;;1.30;;
9848;SDS011;4963;51.444;6.528;2024-03-02T11:00:12;2.50;;;1.10;;
9848;SDS011;4963;51.444;6.528;2024-03-02T11:02:46;2.00;;;1.43;;
9848;SDS011;4963;51.444;6.528;2024-03-02T11:05:17;2.87;;;1.10;;
9848;SDS011;4963;51.444;6.528;2024-03-02T11:07:55;4.33;;;1.40;;
9848;SDS011;4963;51.444;6.528;2024-03-02T11:12:59;4.73;;;1.30;;
9848;SDS011;4963;51.444;6.528;2024-03-02T11:15:29;2.33;;;1.10;;
9848;SDS011;4963;51.444;6.528;2024-03-02T11:17:57;2.40;;;1.00;;
9848;SDS011;4963;51.444;6.528;2024-03-02T11:20:24;2.47;;;1.10;;
9848;SDS011;4963;51.444;6.528;2024-03-02T11:22:55;1.20;;;1.00;;
9848;SDS011;4963;51.444;6.528;2024-03-02T11:25:24;3.23;;;1.20;;
9848;SDS011;4963;51.444;6.528;2024-03-02T11:28:04;3.27;;;1.17;;
9848;SDS011;4963;51.444;6.528;2024-03-02T11:30:50;2.20;;;1.20;;
9848;SDS011;4963;51.444;6.528;2024-03-02T11:33:24;2.20;;;1.00;;
9848;SDS011;4963;51.444;6.528;2024-03-02T11:35:55;3.23;;;1.13;;
9848;SDS011;4963;51.444;6.528;2024-03-02T11:38:29;2.27;;;0.90;;
9848;SDS011;4963;51.444;6.528;2024-03-02T11:40:57;1.47;;;1.00;;
9848;SDS011;4963;51.444;6.528;2024-03-02T11:43:25;4.53;;;1.17;;
9848;SDS011;4963;51.444;6.528;2024-03-02T11:45:56;3.53;;;1.30;;
9848;SDS011;4963;51.444;6.528;2024-03-02T11:48:23;1.37;;;0.97;;
9848;SDS011;4963;51.444;6.528;2024-03-02T11:50:51;2.87;;;1.20;;
9848;SDS011;4963;51.444;6.528;2024-03-02T11:53:19;3.90;;;1.37;;
9848;SDS011;4963;51.444;6.528;2024-03-02T11:55:48;5.03;;;1.30;;
9848;SDS011;4963;51.444;6.528;2024-03-02T11:58:16;2.90;;;1.10;;
9848;SDS011;4963;51.444;6.528;2024-03-02T12:00:45;1.80;;;1.17;;
9848;SDS011;4963;51.444;6.528;2024-03-02T12:03:12;2.03;;;1.20;;
9848;SDS011;4963;51.444;6.528;2024-03-02T12:05:41;1.63;;;1.00;;
9848;SDS011;4963;51.444;6.528;2024-03-02T12:08:08;4.00;;;1.67;;
9848;SDS011;4963;51.444;6.528;2024-03-02T12:10:37;1.77;;;1.10;;
9848;SDS011;4963;51.444;6.528;2024-03-02T12:13:06;3.27;;;1.13;;
9848;SDS011;4963;51.444;6.528;2024-03-02T12:15:37;2.67;;;1.00;;
9848;SDS011;4963;51.444;6.528;2024-03-02T12:18:05;4.33;;;1.60;;
9848;SDS011;4963;51.444;6.528;2024-03-02T12:20:32;2.67;;;1.20;;
9848;SDS011;4963;51.444;6.528;2024-03-02T12:23:00;3.83;;;1.07;;
9848;SDS011;4963;51.444;6.528;2024-03-02T12:25:31;4.03;;;1.00;;
9848;SDS011;4963;51.444;6.528;2024-03-02T12:27:59;2.50;;;1.17;;
9848;SDS011;4963;51.444;6.528;2024-03-02T12:30:29;3.00;;;1.33;;
9848;SDS011;4963;51.444;6.528;2024-03-02T12:32:57;2.30;;;1.20;;
9848;SDS011;4963;51.444;6.528;2024-03-02T12:35:24;2.73;;;1.17;;
9848;SDS011;4963;51.444;6.528;2024-03-02T12:37:52;2.57;;;1.30;;
9848;SDS011;4963;51.444;6.528;2024-03-02T12:40:20;2.70;;;1.37;;
9848;SDS011;4963;51.444;6.528;2024-03-02T12:42:50;3.97;;;1.60;;
9848;SDS011;4963;51.444;6.528;2024-03-02T12:45:17;1.53;;;1.00;;
9848;SDS011;4963;51.444;6.528;2024-03-02T12:47:50;4.73;;;1.60;;
9848;SDS011;4963;51.444;6.528;2024-03-02T12:50:17;2.87;;;1.17;;
9848;SDS011;4963;51.444;6.528;2024-03-02T12:52:50;2.10;;;1.00;;
9848;SDS011;4963;51.444;6.528;2024-03-02T12:55:19;1.60;;;1.10;;
9848;SDS011;4963;51.444;6.528;2024-03-02T12:57:49;1.97;;;1.10;;
9848;SDS011;4963;51.444;6.528;2024-03-02T13:00:17;2.27;;;1.40;;
9848;SDS011;4963;51.444;6.528;2024-03-02T13:02:45;3.07;;;1.20;;
9848;SDS011;4963;51.444;6.528;2024-03-02T13:05:13;1.27;;;0.90;;
9848;SDS011;4963;51.444;6.528;2024-03-02T13:07:43;3.30;;;1.33;;
9848;SDS011;4963;51.444;6.528;2024-03-02T13:10:13;3.47;;;1.10;;
9848;SDS011;4963;51.444;6.528;2024-03-02T13:12:40;7.30;;;1.40;;
9848;SDS011;4963;51.444;6.528;2024-03-02T13:15:07;3.10;;;1.20;;
9848;SDS011;4963;51.444;6.528;2024-03-02T13:17:35;2.27;;;1.17;;
9848;SDS011;4963;51.444;6.528;2024-03-02T13:20:02;2.50;;;1.20;;
9848;SDS011;4963;51.444;6.528;2024-03-02T13:22:34;1.73;;;1.20;;
9848;SDS011;4963;51.444;6.528;2024-03-02T13:25:01;3.17;;;1.07;;
9848;SDS011;4963;51.444;6.528;2024-03-02T13:27:30;3.00;;;1.23;;
9848;SDS011;4963;51.444;6.528;2024-03-02T13:29:57;2.77;;;1.13;;
9848;SDS011;4963;51.444;6.528;2024-03-02T13:32:24;1.87;;;1.30;;
9848;SDS011;4963;51.444;6.528;2024-03-02T13:34:51;3.17;;;1.30;;
9848;SDS011;4963;51.444;6.528;2024-03-02T13:37:19;4.47;;;1.53;;
9848;SDS011;4963;51.444;6.528;2024-03-02T13:39:48;2.97;;;1.10;;
9848;SDS011;4963;51.444;6.528;2024-03-02T13:42:15;1.60;;;1.30;;
9848;SDS011;4963;51.444;6.528;2024-03-02T13:44:43;3.13;;;1.30;;
9848;SDS011;4963;51.444;6.528;2024-03-02T13:47:10;3.33;;;1.50;;
9848;SDS011;4963;51.444;6.528;2024-03-02T13:49:37;2.53;;;1.47;;
9848;SDS011;4963;51.444;6.528;2024-03-02T13:52:08;4.93;;;1.30;;
9848;SDS011;4963;51.444;6.528;2024-03-02T13:54:38;2.13;;;1.10;;
9848;SDS011;4963;51.444;6.528;2024-03-02T13:57:07;2.13;;;1.40;;
9848;SDS011;4963;51.444;6.528;2024-03-02T13:59:34;2.57;;;1.10;;
9848;SDS011;4963;51.444;6.528;2024-03-02T14:02:02;2.87;;;1.23;;
9848;SDS011;4963;51.444;6.528;2024-03-02T14:04:31;3.53;;;1.20;;
9848;SDS011;4963;51.444;6.528;2024-03-02T14:06:59;2.00;;;1.37;;
9848;SDS011;4963;51.444;6.528;2024-03-02T14:09:26;1.80;;;1.50;;
9848;SDS011;4963;51.444;6.528;2024-03-02T14:11:54;3.27;;;1.50;;
9848;SDS011;4963;51.444;6.528;2024-03-02T14:14:22;2.27;;;1.43;;
9848;SDS011;4963;51.444;6.528;2024-03-02T14:16:49;1.80;;;1.20;;
9848;SDS011;4963;51.444;6.528;2024-03-02T14:19:16;2.27;;;1.67;;
9848;SDS011;4963;51.444;6.528;2024-03-02T14:21:43;1.60;;;1.20;;
9848;SDS011;4963;51.444;6.528;2024-03-02T14:24:12;1.73;;;1.43;;
9848;SDS011;4963;51.444;6.528;2024-03-02T14:26:39;2.40;;;1.50;;
9848;SDS011;4963;51.444;6.528;2024-03-02T14:29:06;3.30;;;1.47;;
9848;SDS011;4963;51.444;6.528;2024-03-02T14:31:36;2.73;;;1.40;;
9848;SDS011;4963;51.444;6.528;2024-03-02T14:34:03;2.60;;;1.63;;
9848;SDS011;4963;51.444;6.528;2024-03-02T14:36:30;2.93;;;1.20;;
9848;SDS011;4963;51.444;6.528;2024-03-02T14:38:57;2.60;;;1.40;;
9848;SDS011;4963;51.444;6.528;2024-03-02T14:41:24;1.87;;;1.20;;
9848;SDS011;4963;51.444;6.528;2024-03-02T14:43:51;1.67;;;1.27;;
9848;SDS011;4963;51.444;6.528;2024-03-02T14:46:19;4.13;;;1.40;;
9848;SDS011;4963;51.444;6.528;2024-03-02T14:48:47;2.97;;;1.40;;
9848;SDS011;4963;51.444;6.528;2024-03-02T14:51:14;1.70;;;1.40;;
9848;SDS011;4963;51.444;6.528;2024-03-02T14:53:41;2.30;;;1.40;;
9848;SDS011;4963;51.444;6.528;2024-03-02T14:56:09;2.07;;;1.33;;
9848;SDS011;4963;51.444;6.528;2024-03-02T14:58:38;1.50;;;1.10;;
9848;SDS011;4963;51.444;6.528;2024-03-02T15:01:05;1.83;;;1.40;;
9848;SDS011;4963;51.444;6.528;2024-03-02T15:03:32;2.80;;;1.37;;
9848;SDS011;4963;51.444;6.528;2024-03-02T15:06:01;2.67;;;1.47;;
9848;SDS011;4963;51.444;6.528;2024-03-02T15:08:29;2.80;;;1.30;;
9848;SDS011;4963;51.444;6.528;2024-03-02T15:10:56;2.40;;;1.40;;
9848;SDS011;4963;51.444;6.528;2024-03-02T15:13:25;2.60;;;1.43;;
9848;SDS011;4963;51.444;6.528;2024-03-02T15:15:52;2.03;;;1.60;;
9848;SDS011;4963;51.444;6.528;2024-03-02T15:18:19;3.10;;;1.30;;
9848;SDS011;4963;51.444;6.528;2024-03-02T15:20:46;1.30;;;1.10;;
9848;SDS011;4963;51.444;6.528;2024-03-02T15:23:14;1.73;;;1.10;;
9848;SDS011;4963;51.444;6.528;2024-03-02T15:25:41;2.20;;;1.20;;